sensor_id;sensor_type;location;lat;lon;timestamp;temperature;humidity
74420;DHT22;62855;50.718;-2.460;2023-01-04T00:02:00;52.16;89.00
74420;DHT22;62855;50.718;-2.460;2023-01-04T00:05:00;52.16;89.00
74420;DHT22;62855;50.718;-2.460;2023-01-04T00:08:01;52.16;89.00
74420;DHT22;62855;50.718;-2.460;2023-01-04T00:11:01;52.16;89.00
74420;DHT22;62855;50.718;-2.460;2023-01-04T00:14:00;52.16;89.00
74420;DHT22;62855;50.718;-2.460;2023-01-04T00:17:00;52.16;89.00
74420;DHT22;62855;50.718;-2.460;2023-01-04T00:20:01;52.16;89.00
74420;DHT22;62855;50.718;-2.460;2023-01-04T00:23:01;52.16;89.00
74420;DHT22;62855;50.718;-2.460;2023-01-04T00:26:01;52.16;88.00
74420;DHT22;62855;50.718;-2.460;2023-01-04T00:29:02;52.34;88.00
74420;DHT22;62855;50.718;-2.460;2023-01-04T00:32:01;52.34;88.00
74420;DHT22;62855;50.718;-2.460;2023-01-04T00:35:00;52.34;88.00
74420;DHT22;62855;50.718;-2.460;2023-01-04T00:38:01;52.34;88.00
74420;DHT22;62855;50.718;-2.460;2023-01-04T00:41:02;52.34;88.00
74420;DHT22;62855;50.718;-2.460;2023-01-04T00:44:00;52.34;88.00
74420;DHT22;62855;50.718;-2.460;2023-01-04T00:47:02;52.34;88.00
74420;DHT22;62855;50.718;-2.460;2023-01-04T00:50:00;52.34;88.00
74420;DHT22;62855;50.718;-2.460;2023-01-04T00:53:01;52.34;88.00
74420;DHT22;62855;50.718;-2.460;2023-01-04T00:56:00;52.34;88.00
74420;DHT22;62855;50.718;-2.460;2023-01-04T00:59:02;52.34;88.00
74420;DHT22;62855;50.718;-2.460;2023-01-04T01:02:00;52.34;88.00
74420;DHT22;62855;50.718;-2.460;2023-01-04T01:05:01;52.34;88.00
74420;DHT22;62855;50.718;-2.460;2023-01-04T01:08:01;52.34;88.00
74420;DHT22;62855;50.718;-2.460;2023-01-04T01:11:02;52.34;88.00
74420;DHT22;62855;50.718;-2.460;2023-01-04T01:14:01;52.34;88.00
74420;DHT22;62855;50.718;-2.460;2023-01-04T01:17:01;52.34;88.00
74420;DHT22;62855;50.718;-2.460;2023-01-04T01:20:01;52.34;89.00
74420;DHT22;62855;50.718;-2.460;2023-01-04T01:23:00;52.34;89.00
74420;DHT22;62855;50.718;-2.460;2023-01-04T01:26:02;52.34;89.00
74420;DHT22;62855;50.718;-2.460;2023-01-04T01:29:00;52.34;89.00
74420;DHT22;62855;50.718;-2.460;2023-01-04T01:32:01;52.34;89.00
74420;DHT22;62855;50.718;-2.460;2023-01-04T01:36:01;52.34;89.00
74420;DHT22;62855;50.718;-2.460;2023-01-04T01:39:00;52.34;89.00
74420;DHT22;62855;50.718;-2.460;2023-01-04T01:42:01;52.34;89.00
74420;DHT22;62855;50.718;-2.460;2023-01-04T01:45:02;52.34;89.00
74420;DHT22;62855;50.718;-2.460;2023-01-04T01:48:04;52.34;89.00
74420;DHT22;62855;50.718;-2.460;2023-01-04T01:51:01;52.34;90.00
74420;DHT22;62855;50.718;-2.460;2023-01-04T01:54:03;52.34;90.00
74420;DHT22;62855;50.718;-2.460;2023-01-04T01:57:03;52.34;90.00
74420;DHT22;62855;50.718;-2.460;2023-01-04T02:00:05;52.34;90.00
74420;DHT22;62855;50.718;-2.460;2023-01-04T02:03:08;52.34;90.00
74420;DHT22;62855;50.718;-2.460;2023-01-04T02:06:02;52.34;90.00
74420;DHT22;62855;50.718;-2.460;2023-01-04T02:09:01;52.34;90.00
74420;DHT22;62855;50.718;-2.460;2023-01-04T02:12:00;52.34;90.00
74420;DHT22;62855;50.718;-2.460;2023-01-04T02:15:01;52.34;90.00
74420;DHT22;62855;50.718;-2.460;2023-01-04T02:18:05;52.34;90.00
74420;DHT22;62855;50.718;-2.460;2023-01-04T02:21:04;52.34;90.00
74420;DHT22;62855;50.718;-2.460;2023-01-04T02:24:17;52.34;90.00
74420;DHT22;62855;50.718;-2.460;2023-01-04T02:27:16;52.34;90.00
74420;DHT22;62855;50.718;-2.460;2023-01-04T02:30:14;52.34;90.00
74420;DHT22;62855;50.718;-2.460;2023-01-04T02:33:12;52.34;90.00
74420;DHT22;62855;50.718;-2.460;2023-01-04T02:36:09;52.34;90.00
74420;DHT22;62855;50.718;-2.460;2023-01-04T02:39:07;52.52;90.00
74420;DHT22;62855;50.718;-2.460;2023-01-04T02:42:06;52.52;90.00
74420;DHT22;62855;50.718;-2.460;2023-01-04T02:45:02;52.52;90.00
74420;DHT22;62855;50.718;-2.460;2023-01-04T02:48:01;52.52;90.00
74420;DHT22;62855;50.718;-2.460;2023-01-04T02:51:00;52.52;90.00
74420;DHT22;62855;50.718;-2.460;2023-01-04T02:54:04;52.52;90.00
74420;DHT22;62855;50.718;-2.460;2023-01-04T02:57:09;52.52;90.00
74420;DHT22;62855;50.718;-2.460;2023-01-04T03:00:10;52.52;90.00
74420;DHT22;62855;50.718;-2.460;2023-01-04T03:03:11;52.52;90.00
74420;DHT22;62855;50.718;-2.460;2023-01-04T03:06:06;52.52;90.00
74420;DHT22;62855;50.718;-2.460;2023-01-04T03:09:04;52.52;90.00
74420;DHT22;62855;50.718;-2.460;2023-01-04T03:12:03;52.52;90.00
74420;DHT22;62855;50.718;-2.460;2023-01-04T03:15:07;52.52;91.00
74420;DHT22;62855;50.718;-2.460;2023-01-04T03:18:06;52.52;91.00
74420;DHT22;62855;50.718;-2.460;2023-01-04T03:21:02;52.52;91.00
74420;DHT22;62855;50.718;-2.460;2023-01-04T03:24:02;52.52;91.00
74420;DHT22;62855;50.718;-2.460;2023-01-04T03:27:03;52.52;91.00
74420;DHT22;62855;50.718;-2.460;2023-01-04T03:30:03;52.52;91.00
74420;DHT22;62855;50.718;-2.460;2023-01-04T03:33:03;52.52;91.00
74420;DHT22;62855;50.718;-2.460;2023-01-04T03:36:07;52.52;91.00
74420;DHT22;62855;50.718;-2.460;2023-01-04T03:39:07;52.52;91.00
74420;DHT22;62855;50.718;-2.460;2023-01-04T03:42:09;52.52;91.00
74420;DHT22;62855;50.718;-2.460;2023-01-04T03:45:10;52.52;91.00
74420;DHT22;62855;50.718;-2.460;2023-01-04T03:48:06;52.52;91.00
74420;DHT22;62855;50.718;-2.460;2023-01-04T03:51:11;52.52;91.00
74420;DHT22;62855;50.718;-2.460;2023-01-04T03:54:04;52.52;91.00
74420;DHT22;62855;50.718;-2.460;2023-01-04T03:57:02;52.52;91.00
74420;DHT22;62855;50.718;-2.460;2023-01-04T04:00:04;52.52;91.00
74420;DHT22;62855;50.718;-2.460;2023-01-04T04:03:04;52.52;91.00
74420;DHT22;62855;50.718;-2.460;2023-01-04T04:06:01;52.52;91.00
74420;DHT22;62855;50.718;-2.460;2023-01-04T04:09:01;52.52;91.00
74420;DHT22;62855;50.718;-2.460;2023-01-04T04:12:01;52.52;91.00
74420;DHT22;62855;50.718;-2.460;2023-01-04T04:15:00;52.52;91.00
74420;DHT22;62855;50.718;-2.460;2023-01-04T04:18:01;52.52;91.00
74420;DHT22;62855;50.718;-2.460;2023-01-04T04:21:00;52.52;91.00
74420;DHT22;62855;50.718;-2.460;2023-01-04T04:24:00;52.52;91.00
74420;DHT22;62855;50.718;-2.460;2023-01-04T04:27:00;52.52;91.00
74420;DHT22;62855;50.718;-2.460;2023-01-04T04:30:00;52.52;91.00
74420;DHT22;62855;50.718;-2.460;2023-01-04T04:33:01;52.52;91.00
74420;DHT22;62855;50.718;-2.460;2023-01-04T04:36:00;52.52;91.00
74420;DHT22;62855;50.718;-2.460;2023-01-04T04:39:01;52.52;91.00
74420;DHT22;62855;50.718;-2.460;2023-01-04T04:42:00;52.52;91.00
74420;DHT22;62855;50.718;-2.460;2023-01-04T04:45:01;52.70;91.00
74420;DHT22;62855;50.718;-2.460;2023-01-04T04:48:01;52.70;91.00
74420;DHT22;62855;50.718;-2.460;2023-01-04T04:51:00;52.70;91.00
74420;DHT22;62855;50.718;-2.460;2023-01-04T04:54:01;52.70;91.00
74420;DHT22;62855;50.718;-2.460;2023-01-04T04:57:01;52.70;91.00
74420;DHT22;62855;50.718;-2.460;2023-01-04T05:00:01;52.70;91.00
74420;DHT22;62855;50.718;-2.460;2023-01-04T05:03:00;52.70;91.00
74420;DHT22;62855;50.718;-2.460;2023-01-04T05:06:01;52.70;91.00
74420;DHT22;62855;50.718;-2.460;2023-01-04T05:09:00;52.70;91.00
74420;DHT22;62855;50.718;-2.460;2023-01-04T05:12:00;52.70;91.00
74420;DHT22;62855;50.718;-2.460;2023-01-04T05:15:01;52.70;91.00
74420;DHT22;62855;50.718;-2.460;2023-01-04T05:18:00;52.70;91.00
74420;DHT22;62855;50.718;-2.460;2023-01-04T05:21:01;52.70;91.00
74420;DHT22;62855;50.718;-2.460;2023-01-04T05:25:00;52.70;91.00
74420;DHT22;62855;50.718;-2.460;2023-01-04T05:28:00;52.52;91.00
74420;DHT22;62855;50.718;-2.460;2023-01-04T05:31:01;52.52;91.00
74420;DHT22;62855;50.718;-2.460;2023-01-04T05:34:00;52.52;91.00
74420;DHT22;62855;50.718;-2.460;2023-01-04T05:37:00;52.52;91.00
74420;DHT22;62855;50.718;-2.460;2023-01-04T05:40:01;52.52;91.00
74420;DHT22;62855;50.718;-2.460;2023-01-04T05:43:00;52.52;91.00
74420;DHT22;62855;50.718;-2.460;2023-01-04T05:46:01;52.52;91.00
74420;DHT22;62855;50.718;-2.460;2023-01-04T05:49:00;52.52;91.00
74420;DHT22;62855;50.718;-2.460;2023-01-04T05:52:00;52.70;91.00
74420;DHT22;62855;50.718;-2.460;2023-01-04T05:55:01;52.70;91.00
74420;DHT22;62855;50.718;-2.460;2023-01-04T05:58:02;52.70;91.00
74420;DHT22;62855;50.718;-2.460;2023-01-04T06:01:00;52.70;91.00
74420;DHT22;62855;50.718;-2.460;2023-01-04T06:04:00;52.70;91.00
74420;DHT22;62855;50.718;-2.460;2023-01-04T06:07:00;52.70;91.00
74420;DHT22;62855;50.718;-2.460;2023-01-04T06:10:01;52.70;91.00
74420;DHT22;62855;50.718;-2.460;2023-01-04T06:13:00;52.70;91.00
74420;DHT22;62855;50.718;-2.460;2023-01-04T06:16:01;52.70;91.00
74420;DHT22;62855;50.718;-2.460;2023-01-04T06:19:01;52.70;91.00
74420;DHT22;62855;50.718;-2.460;2023-01-04T06:22:01;52.70;91.00
74420;DHT22;62855;50.718;-2.460;2023-01-04T06:25:00;52.70;91.00
74420;DHT22;62855;50.718;-2.460;2023-01-04T06:28:00;52.70;91.00
74420;DHT22;62855;50.718;-2.460;2023-01-04T06:31:03;52.70;91.00
74420;DHT22;62855;50.718;-2.460;2023-01-04T06:34:01;52.70;91.00
74420;DHT22;62855;50.718;-2.460;2023-01-04T06:37:00;52.70;91.00
74420;DHT22;62855;50.718;-2.460;2023-01-04T06:40:00;52.70;91.00
74420;DHT22;62855;50.718;-2.460;2023-01-04T06:43:01;52.70;91.00
74420;DHT22;62855;50.718;-2.460;2023-01-04T06:46:00;52.70;91.00
74420;DHT22;62855;50.718;-2.460;2023-01-04T06:49:00;52.70;91.00
74420;DHT22;62855;50.718;-2.460;2023-01-04T06:52:00;52.70;91.00
74420;DHT22;62855;50.718;-2.460;2023-01-04T06:55:01;52.70;91.00
74420;DHT22;62855;50.718;-2.460;2023-01-04T06:58:00;52.70;91.00
74420;DHT22;62855;50.718;-2.460;2023-01-04T07:01:00;52.70;91.00
74420;DHT22;62855;50.718;-2.460;2023-01-04T07:04:01;52.70;91.00
74420;DHT22;62855;50.718;-2.460;2023-01-04T07:07:00;52.70;91.00
74420;DHT22;62855;50.718;-2.460;2023-01-04T07:10:00;52.70;91.00
74420;DHT22;62855;50.718;-2.460;2023-01-04T07:13:00;52.70;91.00
74420;DHT22;62855;50.718;-2.460;2023-01-04T07:16:00;52.52;91.00
74420;DHT22;62855;50.718;-2.460;2023-01-04T07:19:00;52.52;91.00
74420;DHT22;62855;50.718;-2.460;2023-01-04T07:22:01;52.52;91.00
74420;DHT22;62855;50.718;-2.460;2023-01-04T07:25:00;52.52;91.00
74420;DHT22;62855;50.718;-2.460;2023-01-04T07:28:01;52.52;91.00
74420;DHT22;62855;50.718;-2.460;2023-01-04T07:31:03;52.52;91.00
74420;DHT22;62855;50.718;-2.460;2023-01-04T07:34:00;52.52;91.00
74420;DHT22;62855;50.718;-2.460;2023-01-04T07:37:00;52.52;91.00
74420;DHT22;62855;50.718;-2.460;2023-01-04T07:40:00;52.52;91.00
74420;DHT22;62855;50.718;-2.460;2023-01-04T07:43:01;52.52;91.00
74420;DHT22;62855;50.718;-2.460;2023-01-04T07:46:00;52.52;91.00
74420;DHT22;62855;50.718;-2.460;2023-01-04T07:49:01;52.52;91.00
74420;DHT22;62855;50.718;-2.460;2023-01-04T07:52:00;52.52;91.00
74420;DHT22;62855;50.718;-2.460;2023-01-04T07:55:01;52.52;91.00
74420;DHT22;62855;50.718;-2.460;2023-01-04T07:58:01;52.52;91.00
74420;DHT22;62855;50.718;-2.460;2023-01-04T08:01:09;52.52;91.00
74420;DHT22;62855;50.718;-2.460;2023-01-04T08:05:00;52.52;91.00
74420;DHT22;62855;50.718;-2.460;2023-01-04T08:08:01;52.34;91.00
74420;DHT22;62855;50.718;-2.460;2023-01-04T08:11:01;52.34;91.00
74420;DHT22;62855;50.718;-2.460;2023-01-04T08:14:01;52.34;91.00
74420;DHT22;62855;50.718;-2.460;2023-01-04T08:17:00;52.34;91.00
74420;DHT22;62855;50.718;-2.460;2023-01-04T08:20:00;52.34;91.00
74420;DHT22;62855;50.718;-2.460;2023-01-04T08:23:00;52.16;91.00
74420;DHT22;62855;50.718;-2.460;2023-01-04T08:26:01;52.16;91.00
74420;DHT22;62855;50.718;-2.460;2023-01-04T08:29:00;52.16;91.00
74420;DHT22;62855;50.718;-2.460;2023-01-04T08:32:01;52.16;91.00
74420;DHT22;62855;50.718;-2.460;2023-01-04T08:35:00;52.16;91.00
74420;DHT22;62855;50.718;-2.460;2023-01-04T08:38:01;52.16;91.00
74420;DHT22;62855;50.718;-2.460;2023-01-04T08:41:00;52.16;91.00
74420;DHT22;62855;50.718;-2.460;2023-01-04T08:44:00;52.16;91.00
74420;DHT22;62855;50.718;-2.460;2023-01-04T08:47:01;52.16;91.00
74420;DHT22;62855;50.718;-2.460;2023-01-04T08:50:00;52.16;91.00
74420;DHT22;62855;50.718;-2.460;2023-01-04T08:53:00;52.16;91.00
74420;DHT22;62855;50.718;-2.460;2023-01-04T08:56:02;52.16;91.00
74420;DHT22;62855;50.718;-2.460;2023-01-04T08:59:00;52.16;91.00
74420;DHT22;62855;50.718;-2.460;2023-01-04T09:03:01;52.16;91.00
74420;DHT22;62855;50.718;-2.460;2023-01-04T09:06:02;52.34;91.00
74420;DHT22;62855;50.718;-2.460;2023-01-04T09:09:00;52.16;91.00
74420;DHT22;62855;50.718;-2.460;2023-01-04T09:12:00;52.16;91.00
74420;DHT22;62855;50.718;-2.460;2023-01-04T09:15:00;52.16;91.00
74420;DHT22;62855;50.718;-2.460;2023-01-04T09:18:00;52.16;91.00
74420;DHT22;62855;50.718;-2.460;2023-01-04T09:21:04;52.16;91.00
74420;DHT22;62855;50.718;-2.460;2023-01-04T09:24:00;52.16;91.00
74420;DHT22;62855;50.718;-2.460;2023-01-04T09:27:00;52.16;91.00
74420;DHT22;62855;50.718;-2.460;2023-01-04T09:30:00;52.16;91.00
74420;DHT22;62855;50.718;-2.460;2023-01-04T09:33:01;52.16;91.00
74420;DHT22;62855;50.718;-2.460;2023-01-04T09:36:01;52.16;91.00
74420;DHT22;62855;50.718;-2.460;2023-01-04T09:39:00;52.16;91.00
74420;DHT22;62855;50.718;-2.460;2023-01-04T09:42:01;52.34;91.00
74420;DHT22;62855;50.718;-2.460;2023-01-04T09:45:04;52.34;91.00
74420;DHT22;62855;50.718;-2.460;2023-01-04T09:48:05;52.34;90.00
74420;DHT22;62855;50.718;-2.460;2023-01-04T09:51:03;52.52;90.00
74420;DHT22;62855;50.718;-2.460;2023-01-04T09:54:04;52.52;90.00
74420;DHT22;62855;50.718;-2.460;2023-01-04T09:57:01;52.52;90.00
74420;DHT22;62855;50.718;-2.460;2023-01-04T10:00:04;52.52;90.00
74420;DHT22;62855;50.718;-2.460;2023-01-04T10:03:06;52.70;90.00
74420;DHT22;62855;50.718;-2.460;2023-01-04T10:06:01;52.70;90.00
74420;DHT22;62855;50.718;-2.460;2023-01-04T10:09:03;52.70;90.00
74420;DHT22;62855;50.718;-2.460;2023-01-04T10:12:08;52.70;90.00
74420;DHT22;62855;50.718;-2.460;2023-01-04T10:15:12;52.88;90.00
74420;DHT22;62855;50.718;-2.460;2023-01-04T10:18:13;52.88;90.00
74420;DHT22;62855;50.718;-2.460;2023-01-04T10:21:13;52.88;90.00
74420;DHT22;62855;50.718;-2.460;2023-01-04T10:24:11;53.06;89.00
74420;DHT22;62855;50.718;-2.460;2023-01-04T10:27:05;53.06;89.00
74420;DHT22;62855;50.718;-2.460;2023-01-04T10:30:09;53.06;88.00
74420;DHT22;62855;50.718;-2.460;2023-01-04T10:33:08;53.06;88.00
74420;DHT22;62855;50.718;-2.460;2023-01-04T10:36:01;53.06;88.00
74420;DHT22;62855;50.718;-2.460;2023-01-04T10:39:03;53.24;87.00
74420;DHT22;62855;50.718;-2.460;2023-01-04T10:42:10;53.24;87.00
74420;DHT22;62855;50.718;-2.460;2023-01-04T10:45:12;53.06;86.00
74420;DHT22;62855;50.718;-2.460;2023-01-04T10:48:06;53.06;86.00
74420;DHT22;62855;50.718;-2.460;2023-01-04T10:51:03;53.06;86.00
74420;DHT22;62855;50.718;-2.460;2023-01-04T10:54:05;53.06;86.00
74420;DHT22;62855;50.718;-2.460;2023-01-04T10:57:04;53.06;85.00
74420;DHT22;62855;50.718;-2.460;2023-01-04T11:00:03;53.06;85.00
74420;DHT22;62855;50.718;-2.460;2023-01-04T11:03:05;53.06;85.00
74420;DHT22;62855;50.718;-2.460;2023-01-04T11:06:07;53.06;85.00
74420;DHT22;62855;50.718;-2.460;2023-01-04T11:09:02;53.06;85.00
74420;DHT22;62855;50.718;-2.460;2023-01-04T11:12:01;53.06;84.00
74420;DHT22;62855;50.718;-2.460;2023-01-04T11:15:01;53.06;84.00
74420;DHT22;62855;50.718;-2.460;2023-01-04T11:18:03;53.06;84.00
74420;DHT22;62855;50.718;-2.460;2023-01-04T11:21:03;53.06;84.00
74420;DHT22;62855;50.718;-2.460;2023-01-04T11:24:02;53.06;83.00
74420;DHT22;62855;50.718;-2.460;2023-01-04T11:27:05;53.06;83.00
74420;DHT22;62855;50.718;-2.460;2023-01-04T11:30:03;53.24;83.00
74420;DHT22;62855;50.718;-2.460;2023-01-04T11:33:07;53.24;83.00
74420;DHT22;62855;50.718;-2.460;2023-01-04T11:36:00;53.24;83.00
74420;DHT22;62855;50.718;-2.460;2023-01-04T11:39:03;53.24;83.00
74420;DHT22;62855;50.718;-2.460;2023-01-04T11:42:02;53.42;80.00
74420;DHT22;62855;50.718;-2.460;2023-01-04T11:45:00;53.42;80.00
74420;DHT22;62855;50.718;-2.460;2023-01-04T11:48:00;53.60;81.00
74420;DHT22;62855;50.718;-2.460;2023-01-04T11:51:01;53.60;81.00
74420;DHT22;62855;50.718;-2.460;2023-01-04T11:54:03;53.78;81.00
74420;DHT22;62855;50.718;-2.460;2023-01-04T11:57:02;53.78;81.00
74420;DHT22;62855;50.718;-2.460;2023-01-04T12:00:09;53.78;80.00
74420;DHT22;62855;50.718;-2.460;2023-01-04T12:03:11;53.78;80.00
74420;DHT22;62855;50.718;-2.460;2023-01-04T12:06:01;53.78;80.00
74420;DHT22;62855;50.718;-2.460;2023-01-04T12:09:01;53.78;80.00
74420;DHT22;62855;50.718;-2.460;2023-01-04T12:12:01;53.78;80.00
74420;DHT22;62855;50.718;-2.460;2023-01-04T12:15:06;53.78;80.00
74420;DHT22;62855;50.718;-2.460;2023-01-04T12:18:03;53.78;80.00
74420;DHT22;62855;50.718;-2.460;2023-01-04T12:22:02;53.78;80.00
74420;DHT22;62855;50.718;-2.460;2023-01-04T12:25:02;53.78;80.00
74420;DHT22;62855;50.718;-2.460;2023-01-04T12:28:00;53.60;80.00
74420;DHT22;62855;50.718;-2.460;2023-01-04T12:31:25;53.78;80.00
74420;DHT22;62855;50.718;-2.460;2023-01-04T12:37:02;53.78;80.00
74420;DHT22;62855;50.718;-2.460;2023-01-04T12:40:01;53.78;80.00
74420;DHT22;62855;50.718;-2.460;2023-01-04T12:43:23;53.60;80.00
74420;DHT22;62855;50.718;-2.460;2023-01-04T12:46:32;53.60;80.00
74420;DHT22;62855;50.718;-2.460;2023-01-04T12:55:02;53.42;79.00
74420;DHT22;62855;50.718;-2.460;2023-01-04T12:58:02;53.42;79.00
74420;DHT22;62855;50.718;-2.460;2023-01-04T13:01:20;53.42;79.00
74420;DHT22;62855;50.718;-2.460;2023-01-04T13:04:03;53.42;79.00
74420;DHT22;62855;50.718;-2.460;2023-01-04T13:07:08;53.42;79.00
74420;DHT22;62855;50.718;-2.460;2023-01-04T13:10:16;53.42;79.00
74420;DHT22;62855;50.718;-2.460;2023-01-04T13:13:20;53.42;79.00
74420;DHT22;62855;50.718;-2.460;2023-01-04T13:16:08;53.42;79.00
74420;DHT22;62855;50.718;-2.460;2023-01-04T13:19:02;53.42;79.00
74420;DHT22;62855;50.718;-2.460;2023-01-04T13:22:00;53.42;78.00
74420;DHT22;62855;50.718;-2.460;2023-01-04T13:25:01;53.42;78.00
74420;DHT22;62855;50.718;-2.460;2023-01-04T13:28:02;53.42;78.00
74420;DHT22;62855;50.718;-2.460;2023-01-04T13:31:00;53.42;78.00
74420;DHT22;62855;50.718;-2.460;2023-01-04T13:34:01;53.42;78.00
74420;DHT22;62855;50.718;-2.460;2023-01-04T13:37:11;53.42;78.00
74420;DHT22;62855;50.718;-2.460;2023-01-04T13:40:15;53.42;78.00
74420;DHT22;62855;50.718;-2.460;2023-01-04T13:43:12;53.42;78.00
74420;DHT22;62855;50.718;-2.460;2023-01-04T13:46:09;53.42;78.00
74420;DHT22;62855;50.718;-2.460;2023-01-04T13:49:01;53.24;80.00
74420;DHT22;62855;50.718;-2.460;2023-01-04T13:52:12;53.24;80.00
74420;DHT22;62855;50.718;-2.460;2023-01-04T13:55:10;53.24;80.00
74420;DHT22;62855;50.718;-2.460;2023-01-04T13:58:02;53.06;79.00
74420;DHT22;62855;50.718;-2.460;2023-01-04T14:01:02;53.06;79.00
74420;DHT22;62855;50.718;-2.460;2023-01-04T14:04:01;53.06;79.00
74420;DHT22;62855;50.718;-2.460;2023-01-04T14:07:01;53.06;79.00
74420;DHT22;62855;50.718;-2.460;2023-01-04T14:10:00;53.06;79.00
74420;DHT22;62855;50.718;-2.460;2023-01-04T14:13:01;53.06;80.00
74420;DHT22;62855;50.718;-2.460;2023-01-04T14:16:03;53.06;80.00
74420;DHT22;62855;50.718;-2.460;2023-01-04T14:22:00;53.06;80.00
74420;DHT22;62855;50.718;-2.460;2023-01-04T14:28:24;53.06;80.00
74420;DHT22;62855;50.718;-2.460;2023-01-04T14:31:19;53.06;80.00
74420;DHT22;62855;50.718;-2.460;2023-01-04T14:34:06;53.06;79.00
74420;DHT22;62855;50.718;-2.460;2023-01-04T14:37:02;53.06;79.00
74420;DHT22;62855;50.718;-2.460;2023-01-04T14:40:01;53.06;78.00
74420;DHT22;62855;50.718;-2.460;2023-01-04T14:43:01;53.06;78.00
74420;DHT22;62855;50.718;-2.460;2023-01-04T14:46:00;53.06;78.00
74420;DHT22;62855;50.718;-2.460;2023-01-04T14:49:01;52.88;77.00
74420;DHT22;62855;50.718;-2.460;2023-01-04T14:52:02;52.88;77.00
74420;DHT22;62855;50.718;-2.460;2023-01-04T14:55:01;52.88;77.00
74420;DHT22;62855;50.718;-2.460;2023-01-04T14:58:00;52.88;77.00
74420;DHT22;62855;50.718;-2.460;2023-01-04T15:01:01;52.70;78.00
74420;DHT22;62855;50.718;-2.460;2023-01-04T15:04:01;52.70;78.00
74420;DHT22;62855;50.718;-2.460;2023-01-04T15:07:00;52.52;78.00
74420;DHT22;62855;50.718;-2.460;2023-01-04T15:10:01;52.52;78.00
74420;DHT22;62855;50.718;-2.460;2023-01-04T15:14:00;52.52;78.00
74420;DHT22;62855;50.718;-2.460;2023-01-04T15:17:00;52.52;78.00
74420;DHT22;62855;50.718;-2.460;2023-01-04T15:20:00;52.52;78.00
74420;DHT22;62855;50.718;-2.460;2023-01-04T15:23:00;52.34;78.00
74420;DHT22;62855;50.718;-2.460;2023-01-04T15:26:03;52.34;78.00
74420;DHT22;62855;50.718;-2.460;2023-01-04T15:29:00;52.16;78.00
74420;DHT22;62855;50.718;-2.460;2023-01-04T15:32:01;52.16;78.00
74420;DHT22;62855;50.718;-2.460;2023-01-04T15:35:00;52.16;78.00
74420;DHT22;62855;50.718;-2.460;2023-01-04T15:38:00;51.98;78.00
74420;DHT22;62855;50.718;-2.460;2023-01-04T15:41:02;51.98;77.00
74420;DHT22;62855;50.718;-2.460;2023-01-04T15:44:01;51.98;77.00
74420;DHT22;62855;50.718;-2.460;2023-01-04T15:47:01;51.80;77.00
74420;DHT22;62855;50.718;-2.460;2023-01-04T15:50:00;51.80;77.00
74420;DHT22;62855;50.718;-2.460;2023-01-04T15:53:01;51.80;77.00
74420;DHT22;62855;50.718;-2.460;2023-01-04T15:56:03;51.62;77.00
74420;DHT22;62855;50.718;-2.460;2023-01-04T15:59:00;51.62;77.00
74420;DHT22;62855;50.718;-2.460;2023-01-04T16:02:01;51.44;77.00
74420;DHT22;62855;50.718;-2.460;2023-01-04T16:05:00;51.44;77.00
74420;DHT22;62855;50.718;-2.460;2023-01-04T16:08:00;51.26;77.00
74420;DHT22;62855;50.718;-2.460;2023-01-04T16:11:13;51.26;77.00
74420;DHT22;62855;50.718;-2.460;2023-01-04T16:14:01;51.26;78.00
74420;DHT22;62855;50.718;-2.460;2023-01-04T16:17:00;51.08;78.00
74420;DHT22;62855;50.718;-2.460;2023-01-04T16:20:01;51.08;78.00
74420;DHT22;62855;50.718;-2.460;2023-01-04T16:23:01;51.08;78.00
74420;DHT22;62855;50.718;-2.460;2023-01-04T16:26:03;51.08;78.00
74420;DHT22;62855;50.718;-2.460;2023-01-04T16:29:01;51.08;78.00
74420;DHT22;62855;50.718;-2.460;2023-01-04T16:32:01;51.08;78.00
74420;DHT22;62855;50.718;-2.460;2023-01-04T16:35:00;51.26;78.00
74420;DHT22;62855;50.718;-2.460;2023-01-04T16:38:01;51.26;78.00
74420;DHT22;62855;50.718;-2.460;2023-01-04T16:41:01;51.44;78.00
74420;DHT22;62855;50.718;-2.460;2023-01-04T16:44:03;51.44;77.00
74420;DHT22;62855;50.718;-2.460;2023-01-04T16:47:00;51.44;77.00
74420;DHT22;62855;50.718;-2.460;2023-01-04T16:50:01;51.44;77.00
74420;DHT22;62855;50.718;-2.460;2023-01-04T16:53:00;51.44;77.00
74420;DHT22;62855;50.718;-2.460;2023-01-04T16:56:02;51.44;77.00
74420;DHT22;62855;50.718;-2.460;2023-01-04T16:59:01;51.62;77.00
74420;DHT22;62855;50.718;-2.460;2023-01-04T17:02:01;51.62;77.00
74420;DHT22;62855;50.718;-2.460;2023-01-04T17:05:00;51.62;77.00
74420;DHT22;62855;50.718;-2.460;2023-01-04T17:08:00;51.62;77.00
74420;DHT22;62855;50.718;-2.460;2023-01-04T17:11:05;51.62;77.00
74420;DHT22;62855;50.718;-2.460;2023-01-04T17:14:02;51.44;77.00
74420;DHT22;62855;50.718;-2.460;2023-01-04T17:17:01;51.44;77.00
74420;DHT22;62855;50.718;-2.460;2023-01-04T17:20:00;51.26;77.00
74420;DHT22;62855;50.718;-2.460;2023-01-04T17:25:01;51.26;77.00
74420;DHT22;62855;50.718;-2.460;2023-01-04T17:28:00;51.26;77.00
74420;DHT22;62855;50.718;-2.460;2023-01-04T17:31:04;51.26;77.00
74420;DHT22;62855;50.718;-2.460;2023-01-04T17:34:01;51.26;76.00
74420;DHT22;62855;50.718;-2.460;2023-01-04T17:37:01;51.26;76.00
74420;DHT22;62855;50.718;-2.460;2023-01-04T17:40:00;51.26;76.00
74420;DHT22;62855;50.718;-2.460;2023-01-04T17:43:00;51.08;75.00
74420;DHT22;62855;50.718;-2.460;2023-01-04T17:46:01;51.08;75.00
74420;DHT22;62855;50.718;-2.460;2023-01-04T17:49:02;51.08;75.00
74420;DHT22;62855;50.718;-2.460;2023-01-04T17:52:01;51.26;75.00
74420;DHT22;62855;50.718;-2.460;2023-01-04T17:55:00;51.44;75.00
74420;DHT22;62855;50.718;-2.460;2023-01-04T17:58:01;51.44;75.00
74420;DHT22;62855;50.718;-2.460;2023-01-04T18:01:07;51.44;74.00
74420;DHT22;62855;50.718;-2.460;2023-01-04T18:04:01;51.44;74.00
74420;DHT22;62855;50.718;-2.460;2023-01-04T18:07:00;51.44;74.00
74420;DHT22;62855;50.718;-2.460;2023-01-04T18:10:00;51.44;74.00
74420;DHT22;62855;50.718;-2.460;2023-01-04T18:13:00;51.44;74.00
74420;DHT22;62855;50.718;-2.460;2023-01-04T18:16:03;51.44;74.00
74420;DHT22;62855;50.718;-2.460;2023-01-04T18:19:00;51.44;74.00
74420;DHT22;62855;50.718;-2.460;2023-01-04T18:22:01;51.44;74.00
74420;DHT22;62855;50.718;-2.460;2023-01-04T18:25:01;51.44;74.00
74420;DHT22;62855;50.718;-2.460;2023-01-04T18:28:00;51.44;74.00
74420;DHT22;62855;50.718;-2.460;2023-01-04T18:31:06;51.44;74.00
74420;DHT22;62855;50.718;-2.460;2023-01-04T18:34:01;51.44;74.00
74420;DHT22;62855;50.718;-2.460;2023-01-04T18:37:01;51.44;74.00
74420;DHT22;62855;50.718;-2.460;2023-01-04T18:40:00;51.44;74.00
74420;DHT22;62855;50.718;-2.460;2023-01-04T18:43:00;51.44;74.00
74420;DHT22;62855;50.718;-2.460;2023-01-04T18:46:01;51.44;74.00
74420;DHT22;62855;50.718;-2.460;2023-01-04T18:49:01;51.44;74.00
74420;DHT22;62855;50.718;-2.460;2023-01-04T18:52:01;51.44;74.00
74420;DHT22;62855;50.718;-2.460;2023-01-04T18:55:00;51.44;74.00
74420;DHT22;62855;50.718;-2.460;2023-01-04T18:58:00;51.26;74.00
74420;DHT22;62855;50.718;-2.460;2023-01-04T19:01:02;51.26;74.00